createdAt,value
2023-05-18T00:02:29.324Z,99943.55
2023-05-18T00:05:31.375Z,99940.45
2023-05-18T00:08:34.456Z,99942.70
2023-05-18T00:11:36.093Z,99945.12
2023-05-18T00:14:37.811Z,99943.94
2023-05-18T00:17:39.543Z,99946.89
2023-05-18T00:20:41.455Z,99948.29
2023-05-18T00:23:43.054Z,99946.38
2023-05-18T00:26:46.660Z,99944.98
2023-05-18T00:29:48.343Z,99944.02
2023-05-18T00:32:50.145Z,99948.53
2023-05-18T00:35:51.753Z,99947.85
2023-05-18T00:38:53.373Z,99944.06
2023-05-18T00:41:55.039Z,99942.41
2023-05-18T00:44:56.690Z,99941.73
2023-05-18T00:47:58.414Z,99938.63
2023-05-18T00:51:00.614Z,99941.05
2023-05-18T00:54:02.376Z,99940.04
2023-05-18T00:57:04.303Z,99945.44
2023-05-18T01:00:06.855Z,99945.11
2023-05-18T01:03:08.651Z,99945.75
2023-05-18T01:06:10.657Z,99950.26
2023-05-18T01:09:12.474Z,99949.96
2023-05-18T01:12:29.961Z,99951.89
2023-05-18T01:15:34.470Z,99956.63
2023-05-18T01:18:43.605Z,99956.62
2023-05-18T01:21:57.217Z,99962.84
2023-05-18T01:25:04.666Z,99964.92
2023-05-18T01:28:09.755Z,99965.10
2023-05-18T01:31:11.408Z,99966.68
2023-05-18T01:34:13.150Z,99966.21
2023-05-18T01:37:14.919Z,99968.48
2023-05-18T01:40:16.562Z,99967.99
2023-05-18T01:43:20.544Z,99973.52
2023-05-18T01:46:41.007Z,99974.24
2023-05-18T01:49:45.684Z,99972.15
2023-05-18T01:53:05.728Z,99969.59
2023-05-18T01:56:08.335Z,99974.56
2023-05-18T01:59:10.143Z,99975.81
2023-05-18T02:02:12.135Z,99976.96
2023-05-18T02:05:13.858Z,99973.98
2023-05-18T02:08:15.467Z,99974.73
2023-05-18T02:11:17.036Z,99975.99
2023-05-18T02:14:18.608Z,99974.13
2023-05-18T02:17:20.347Z,99976.35
2023-05-18T02:20:22.068Z,99972.23
2023-05-18T02:23:23.669Z,99970.75
2023-05-18T02:26:25.349Z,99971.67
2023-05-18T02:29:27.029Z,99971.02
2023-05-18T02:32:28.678Z,99970.88
2023-05-18T02:35:30.811Z,99976.46
2023-05-18T02:38:32.808Z,99973.04
2023-05-18T02:41:35.206Z,99976.15
2023-05-18T02:44:36.872Z,99980.10
2023-05-18T02:47:38.616Z,99986.80
2023-05-18T02:50:40.318Z,99990.28
2023-05-18T02:53:41.922Z,99985.13
2023-05-18T02:56:43.527Z,99990.30
2023-05-18T02:59:45.144Z,99995.63
2023-05-18T03:02:46.952Z,99997.50
2023-05-18T03:05:48.723Z,100001.81
2023-05-18T03:08:50.941Z,100003.89
2023-05-18T03:11:52.547Z,100005.27
2023-05-18T03:14:54.300Z,100006.98
2023-05-18T03:17:55.959Z,100011.69
2023-05-18T03:20:57.660Z,100013.58
2023-05-18T03:24:00.141Z,100015.98
2023-05-18T03:27:01.818Z,100016.41
2023-05-18T03:30:04.105Z,100020.54
2023-05-18T03:33:06.075Z,100027.55
2023-05-18T03:36:08.010Z,100036.50
2023-05-18T03:39:09.638Z,100041.63
2023-05-18T03:42:11.463Z,100046.89
2023-05-18T03:45:13.092Z,100055.96
2023-05-18T03:48:14.754Z,100059.01
2023-05-18T03:51:16.813Z,100061.93
2023-05-18T03:54:18.394Z,100063.39
2023-05-18T03:57:20.059Z,100068.79
2023-05-18T04:00:21.814Z,100075.35
2023-05-18T04:03:23.608Z,100079.30
2023-05-18T04:06:25.453Z,100082.54
2023-05-18T04:09:27.102Z,100087.12
2023-05-18T04:12:28.795Z,100093.80
2023-05-18T04:15:30.535Z,100096.71
2023-05-18T04:18:32.497Z,100098.58
2023-05-18T04:21:34.079Z,100100.09
2023-05-18T04:24:35.628Z,100104.52
2023-05-18T04:27:37.872Z,100111.04
2023-05-18T04:30:39.485Z,100115.69
2023-05-18T04:33:41.122Z,100122.59
2023-05-18T04:36:42.718Z,100126.79
2023-05-18T04:39:44.477Z,100128.59
2023-05-18T04:42:46.207Z,100132.89
2023-05-18T04:45:47.945Z,100133.09
2023-05-18T04:48:49.704Z,100135.64
2023-05-18T04:51:52.913Z,100138.47
2023-05-18T04:54:54.513Z,100136.98
2023-05-18T04:57:56.258Z,100139.40
2023-05-18T05:01:01.005Z,100139.20
2023-05-18T05:04:02.603Z,100141.00
2023-05-18T05:07:04.357Z,100144.66
2023-05-18T05:10:06.571Z,100146.56
2023-05-18T05:13:08.220Z,100150.48
2023-05-18T05:16:09.831Z,100153.08
2023-05-18T05:19:11.565Z,100158.38
2023-05-18T05:22:13.275Z,100160.94
2023-05-18T05:25:15.307Z,100163.20
2023-05-18T05:28:16.979Z,100165.35
2023-05-18T05:31:18.663Z,100171.27
2023-05-18T05:34:20.496Z,100171.95
2023-05-18T05:37:22.213Z,100177.13
2023-05-18T05:40:24.243Z,100177.90
2023-05-18T05:43:26.075Z,100181.69
2023-05-18T05:46:27.785Z,100185.59
2023-05-18T05:49:29.525Z,100184.84
2023-05-18T05:52:31.221Z,100184.57
2023-05-18T05:55:33.128Z,100190.48
2023-05-18T05:58:34.951Z,100194.13
2023-05-18T06:01:36.646Z,100196.08
2023-05-18T06:04:38.575Z,100199.50
2023-05-18T06:07:40.263Z,100202.23
2023-05-18T06:10:41.890Z,100206.11
2023-05-18T06:13:43.416Z,100208.03
2023-05-18T06:16:45.163Z,100209.07
2023-05-18T06:19:46.778Z,100208.00
2023-05-18T06:22:48.666Z,100207.02
2023-05-18T06:25:50.379Z,100211.11
2023-05-18T06:28:52.053Z,100219.52
2023-05-18T06:31:53.986Z,100223.05
2023-05-18T06:34:55.823Z,100225.54
2023-05-18T06:37:57.431Z,100227.30
2023-05-18T06:40:59.177Z,100231.19
2023-05-18T06:44:01.160Z,100236.62
2023-05-18T06:47:03.191Z,100238.33
2023-05-18T06:50:05.100Z,100244.73
2023-05-18T06:53:06.724Z,100244.77
2023-05-18T06:56:08.399Z,100249.61
2023-05-18T06:59:10.117Z,100248.83
2023-05-18T07:02:11.903Z,100253.35
2023-05-18T07:05:13.674Z,100255.11
2023-05-18T07:08:15.359Z,100254.46
2023-05-18T07:11:16.975Z,100255.82
2023-05-18T07:14:18.603Z,100257.95
2023-05-18T07:17:20.251Z,100255.68
2023-05-18T07:20:23.124Z,100260.55
2023-05-18T07:23:26.714Z,100265.20
2023-05-18T07:26:28.293Z,100268.13
2023-05-18T07:29:30.441Z,100268.63
2023-05-18T07:32:32.119Z,100270.20
2023-05-18T07:35:33.866Z,100271.77
2023-05-18T07:38:35.685Z,100272.67
2023-05-18T07:41:37.333Z,100277.14
2023-05-18T07:44:38.950Z,100277.15
2023-05-18T07:47:40.681Z,100278.94
2023-05-18T07:50:42.308Z,100279.11
2023-05-18T07:53:43.973Z,100281.05
2023-05-18T07:56:45.532Z,100282.67
2023-05-18T07:59:47.163Z,100281.20
2023-05-18T08:02:49.100Z,100278.43
2023-05-18T08:05:50.958Z,100279.02
2023-05-18T08:08:52.843Z,100279.35
2023-05-18T08:11:54.498Z,100277.34
2023-05-18T08:14:56.863Z,100281.73
2023-05-18T08:17:58.476Z,100281.58
2023-05-18T08:21:03.209Z,100283.84
2023-05-18T08:24:06.249Z,100285.67
2023-05-18T08:27:07.880Z,100284.98
2023-05-18T08:30:10.160Z,100288.90
2023-05-18T08:33:11.912Z,100289.95
2023-05-18T08:36:13.735Z,100295.10
2023-05-18T08:39:15.409Z,100292.63
2023-05-18T08:42:24.488Z,100294.30
2023-05-18T08:45:44.073Z,100296.91
2023-05-18T08:48:45.959Z,100300.27
2023-05-18T08:51:55.443Z,100304.66
2023-05-18T08:54:57.450Z,100306.77
2023-05-18T08:57:59.346Z,100301.14
2023-05-18T09:01:01.021Z,100305.39
2023-05-18T09:04:02.720Z,100301.05
2023-05-18T09:07:05.404Z,100299.92
2023-05-18T09:10:07.742Z,100293.40
2023-05-18T09:13:09.888Z,100293.73
2023-05-18T09:16:11.598Z,100294.81
2023-05-18T09:19:13.404Z,100288.86
2023-05-18T09:22:15.297Z,100282.63
2023-05-18T09:25:18.012Z,100287.07
2023-05-18T09:28:46.501Z,100285.91
2023-05-18T09:31:48.693Z,100283.09
2023-05-18T09:34:50.490Z,100283.91
2023-05-18T09:37:52.104Z,100282.95
2023-05-18T09:40:53.940Z,100281.99
2023-05-18T09:43:55.595Z,100284.63
2023-05-18T09:46:57.396Z,100283.88
2023-05-18T09:49:59.054Z,100284.42
2023-05-18T09:53:00.756Z,100285.65
2023-05-18T09:56:05.089Z,100286.69
2023-05-18T09:59:14.861Z,100282.90
2023-05-18T10:02:18.667Z,100282.90
2023-05-18T10:05:22.170Z,100286.67
2023-05-18T10:08:23.834Z,100284.75
2023-05-18T10:11:25.496Z,100280.88
2023-05-18T10:14:28.193Z,100282.42
2023-05-18T10:17:32.601Z,100281.67
2023-05-18T10:20:34.795Z,100283.84
2023-05-18T10:23:37.177Z,100279.77
2023-05-18T10:26:39.330Z,100283.46
2023-05-18T10:29:41.082Z,100284.18
2023-05-18T10:32:43.433Z,100285.80
2023-05-18T10:35:45.836Z,100290.23
2023-05-18T10:38:48.388Z,100288.23
2023-05-18T10:41:51.518Z,100291.13
2023-05-18T10:44:53.667Z,100291.23
2023-05-18T10:47:57.412Z,100295.02
2023-05-18T10:50:59.173Z,100296.64
2023-05-18T10:54:11.827Z,100295.16
2023-05-18T10:57:16.576Z,100287.10
2023-05-18T11:00:18.844Z,100292.42
2023-05-18T11:03:20.961Z,100292.03
2023-05-18T11:06:24.366Z,100292.22
2023-05-18T11:09:26.583Z,100291.82
2023-05-18T11:12:28.346Z,100290.32
2023-05-18T11:15:51.929Z,100290.34
2023-05-18T11:18:53.559Z,100290.42
2023-05-18T11:21:55.264Z,100290.04
2023-05-18T11:24:56.868Z,100284.17
2023-05-18T11:28:03.790Z,100289.02
2023-05-18T11:31:05.425Z,100289.48
2023-05-18T11:34:39.100Z,100288.17
2023-05-18T11:37:41.420Z,100295.56
2023-05-18T11:40:47.192Z,100299.57
2023-05-18T11:44:04.722Z,100304.67
2023-05-18T11:47:10.769Z,100307.98
2023-05-18T11:50:12.677Z,100314.40
2023-05-18T11:53:17.961Z,100312.20
2023-05-18T11:56:19.679Z,100313.66
2023-05-18T11:59:32.488Z,100316.27
2023-05-18T12:02:35.128Z,100314.05
2023-05-18T12:05:37.320Z,100319.04
2023-05-18T12:08:39.356Z,100316.04
2023-05-18T12:11:41.435Z,100312.59
2023-05-18T12:14:44.363Z,100316.48
2023-05-18T12:17:47.848Z,100320.31
2023-05-18T12:20:49.896Z,100322.41
2023-05-18T12:23:58.881Z,100327.53
2023-05-18T12:27:00.510Z,100328.56
2023-05-18T12:30:02.194Z,100328.66
2023-05-18T12:33:04.341Z,100328.30
2023-05-18T12:36:10.370Z,100329.25
2023-05-18T12:39:15.240Z,100330.63
2023-05-18T12:42:16.935Z,100327.89
2023-05-18T12:45:18.732Z,100326.49
2023-05-18T12:48:20.437Z,100322.46
2023-05-18T12:51:22.110Z,100320.33
2023-05-18T12:54:29.933Z,100321.66
2023-05-18T12:57:31.653Z,100320.92
2023-05-18T13:00:34.745Z,100321.14
2023-05-18T13:03:39.871Z,100327.30
2023-05-18T13:06:41.725Z,100326.77
2023-05-18T13:09:46.606Z,100326.92
2023-05-18T13:12:49.587Z,100324.39
2023-05-18T13:15:51.257Z,100328.20
2023-05-18T13:19:01.162Z,100327.13
2023-05-18T13:22:02.812Z,100328.89
2023-05-18T13:25:04.965Z,100322.59
2023-05-18T13:28:07.098Z,100323.17
2023-05-18T13:31:09.958Z,100317.52
2023-05-18T13:34:12.607Z,100313.61
2023-05-18T13:37:14.885Z,100313.34
2023-05-18T13:40:17.370Z,100317.94
2023-05-18T13:43:19.055Z,100318.58
2023-05-18T13:46:20.801Z,100314.92
2023-05-18T13:49:22.391Z,100319.23
2023-05-18T13:52:24.108Z,100318.22
2023-05-18T13:55:25.857Z,100317.27
2023-05-18T13:58:27.576Z,100316.29
2023-05-18T14:01:29.188Z,100317.34
2023-05-18T14:04:30.901Z,100312.42
2023-05-18T14:07:32.452Z,100310.81
2023-05-18T14:10:34.166Z,100309.29
2023-05-18T14:13:35.923Z,100312.16
2023-05-18T14:16:37.516Z,100313.45
2023-05-18T14:19:39.820Z,100305.85
2023-05-18T14:22:42.156Z,100306.35
2023-05-18T14:25:43.985Z,100308.34
2023-05-18T14:28:45.702Z,100309.52
2023-05-18T14:31:47.424Z,100312.20
2023-05-18T14:34:49.359Z,100306.33
2023-05-18T14:37:50.940Z,100309.70
2023-05-18T14:40:53.221Z,100309.35
2023-05-18T14:43:54.854Z,100311.98
2023-05-18T14:46:56.622Z,100311.79
2023-05-18T14:49:58.238Z,100309.73
2023-05-18T14:52:59.909Z,100311.69
2023-05-18T14:56:01.675Z,100312.98
2023-05-18T14:59:03.355Z,100313.73
2023-05-18T15:02:05.248Z,100315.29
2023-05-18T15:05:07.247Z,100311.80
2023-05-18T15:08:08.899Z,100308.28
2023-05-18T15:11:10.627Z,100304.71
2023-05-18T15:14:12.289Z,100302.58
2023-05-18T15:17:13.906Z,100304.04
2023-05-18T15:20:15.637Z,100304.61
2023-05-18T15:23:17.615Z,100298.56
2023-05-18T15:26:19.230Z,100299.35
2023-05-18T15:29:21.008Z,100298.09
2023-05-18T15:32:22.587Z,100299.94
2023-05-18T15:35:24.470Z,100301.23
2023-05-18T15:38:27.265Z,100306.61
2023-05-18T15:41:33.005Z,100308.95
2023-05-18T15:44:34.662Z,100309.91
2023-05-18T15:47:36.243Z,100310.02
2023-05-18T15:50:37.871Z,100310.79
2023-05-18T15:53:39.463Z,100315.95
2023-05-18T15:56:41.112Z,100311.35
2023-05-18T15:59:42.882Z,100314.91
2023-05-18T16:02:44.633Z,100316.35
2023-05-18T16:05:46.394Z,100312.11
2023-05-18T16:08:48.078Z,100319.42
2023-05-18T16:11:49.674Z,100320.83
2023-05-18T16:14:51.353Z,100322.83
2023-05-18T16:17:53.127Z,100324.83
2023-05-18T16:20:54.902Z,100327.42
2023-05-18T16:23:56.537Z,100328.75
2023-05-18T16:26:58.322Z,100331.42
2023-05-18T16:30:00.015Z,100329.18
2023-05-18T16:33:01.834Z,100329.02
2023-05-18T16:36:04.249Z,100331.61
2023-05-18T16:39:05.855Z,100331.60
2023-05-18T16:42:07.849Z,100327.56
2023-05-18T16:45:09.923Z,100332.15
2023-05-18T16:48:11.613Z,100334.38
2023-05-18T16:51:13.199Z,100333.86
2023-05-18T16:54:15.004Z,100332.61
2023-05-18T16:57:16.577Z,100336.00
2023-05-18T17:00:18.970Z,100337.19
2023-05-18T17:03:20.765Z,100338.38
2023-05-18T17:06:22.458Z,100339.77
2023-05-18T17:09:24.135Z,100344.27
2023-05-18T17:12:25.735Z,100346.00
2023-05-18T17:15:27.393Z,100345.45
2023-05-18T17:18:28.958Z,100347.70
2023-05-18T17:21:30.636Z,100347.16
2023-05-18T17:24:32.299Z,100346.04
2023-05-18T17:27:33.936Z,100349.01
2023-05-18T17:30:35.594Z,100353.35
2023-05-18T17:33:37.128Z,100351.98
2023-05-18T17:36:38.821Z,100349.75
2023-05-18T17:39:40.552Z,100352.02
2023-05-18T17:42:42.149Z,100352.56
2023-05-18T17:45:43.861Z,100353.05
2023-05-18T17:48:45.479Z,100354.94
2023-05-18T17:51:47.223Z,100353.02
2023-05-18T17:54:49.005Z,100352.14
2023-05-18T17:57:51.238Z,100355.44
2023-05-18T18:00:52.851Z,100354.60
2023-05-18T18:03:55.084Z,100359.47
2023-05-18T18:06:56.899Z,100360.77
2023-05-18T18:09:58.556Z,100355.09
2023-05-18T18:13:00.144Z,100355.33
2023-05-18T18:16:02.996Z,100356.51
2023-05-18T18:19:04.686Z,100359.50
2023-05-18T18:22:06.738Z,100357.58
2023-05-18T18:25:08.568Z,100361.69
2023-05-18T18:28:10.188Z,100365.17
2023-05-18T18:31:11.902Z,100367.10
2023-05-18T18:34:13.549Z,100365.73
2023-05-18T18:37:15.211Z,100368.12
2023-05-18T18:40:16.939Z,100373.88
2023-05-18T18:43:18.492Z,100375.64
2023-05-18T18:46:20.484Z,100377.76
2023-05-18T18:49:22.242Z,100378.33
2023-05-18T18:52:23.953Z,100375.89
2023-05-18T18:55:25.567Z,100375.95
2023-05-18T18:58:27.214Z,100381.52
2023-05-18T19:01:28.879Z,100384.67
2023-05-18T19:04:30.994Z,100387.54
2023-05-18T19:07:33.437Z,100386.05
2023-05-18T19:10:35.653Z,100386.92
2023-05-18T19:13:37.376Z,100384.80
2023-05-18T19:16:39.165Z,100387.27
2023-05-18T19:19:40.843Z,100390.16
2023-05-18T19:22:42.427Z,100388.99
2023-05-18T19:25:44.638Z,100389.86
2023-05-18T19:28:46.485Z,100386.39
2023-05-18T19:31:48.289Z,100386.96
2023-05-18T19:34:50.048Z,100385.16
2023-05-18T19:37:51.842Z,100386.74
2023-05-18T19:40:56.785Z,100384.52
2023-05-18T19:43:58.370Z,100384.98
2023-05-18T19:47:00.108Z,100387.44
2023-05-18T19:50:01.895Z,100383.26
2023-05-18T19:53:03.564Z,100382.44
2023-05-18T19:56:05.411Z,100387.99
2023-05-18T19:59:07.013Z,100388.80
2023-05-18T20:02:09.005Z,100391.12
2023-05-18T20:05:10.803Z,100391.61
2023-05-18T20:08:12.440Z,100393.53
2023-05-18T20:11:14.576Z,100390.42
2023-05-18T20:14:16.130Z,100391.58
2023-05-18T20:17:17.875Z,100396.14
2023-05-18T20:20:19.423Z,100397.15
2023-05-18T20:23:21.042Z,100402.13
2023-05-18T20:26:23.382Z,100401.30
2023-05-18T20:29:25.065Z,100402.98
2023-05-18T20:32:26.645Z,100402.15
2023-05-18T20:35:28.275Z,100401.53
2023-05-18T20:38:29.885Z,100405.31
2023-05-18T20:41:31.490Z,100410.86
2023-05-18T20:44:33.154Z,100409.96
2023-05-18T20:47:35.250Z,100410.25
2023-05-18T20:50:36.893Z,100410.63
2023-05-18T20:53:38.492Z,100407.85
2023-05-18T20:56:40.086Z,100409.23
2023-05-18T20:59:41.886Z,100405.31
2023-05-18T21:02:44.536Z,100401.92
2023-05-18T21:05:46.354Z,100399.77
2023-05-18T21:08:50.522Z,100401.05
2023-05-18T21:11:52.330Z,100405.30
2023-05-18T21:14:54.112Z,100403.34
2023-05-18T21:17:55.818Z,100396.75
2023-05-18T21:20:57.452Z,100394.82
2023-05-18T21:23:59.105Z,100398.75
2023-05-18T21:27:00.775Z,100398.52
2023-05-18T21:30:02.524Z,100399.70
2023-05-18T21:33:04.261Z,100399.51
2023-05-18T21:36:06.269Z,100398.10
2023-05-18T21:39:08.008Z,100399.30
2023-05-18T21:42:10.281Z,100397.41
2023-05-18T21:45:12.620Z,100394.11
2023-05-18T21:48:14.436Z,100396.85
2023-05-18T21:51:16.973Z,100394.65
2023-05-18T21:54:18.615Z,100392.41
2023-05-18T21:57:20.315Z,100391.86
2023-05-18T22:00:22.094Z,100393.23
2023-05-18T22:03:24.212Z,100397.19
2023-05-18T22:06:25.957Z,100398.03
2023-05-18T22:09:27.596Z,100396.65
2023-05-18T22:12:29.238Z,100394.95
2023-05-18T22:15:30.794Z,100396.30
2023-05-18T22:18:32.459Z,100393.02
2023-05-18T22:21:34.082Z,100392.70
2023-05-18T22:24:35.743Z,100388.38
2023-05-18T22:27:37.455Z,100386.81
2023-05-18T22:30:39.601Z,100384.40
2023-05-18T22:33:41.248Z,100382.70
2023-05-18T22:36:42.905Z,100381.16
2023-05-18T22:39:44.726Z,100377.02
2023-05-18T22:42:46.489Z,100377.34
2023-05-18T22:45:48.772Z,100376.48
2023-05-18T22:48:50.343Z,100374.24
2023-05-18T22:51:51.988Z,100370.11
2023-05-18T22:54:53.688Z,100369.93
2023-05-18T22:57:55.366Z,100373.37
2023-05-18T23:00:57.157Z,100373.55
2023-05-18T23:03:58.834Z,100377.34
2023-05-18T23:07:00.702Z,100378.89
2023-05-18T23:10:07.706Z,100376.14
2023-05-18T23:13:10.826Z,100376.46
2023-05-18T23:16:12.444Z,100381.49
2023-05-18T23:19:14.076Z,100379.30
2023-05-18T23:22:16.548Z,100380.67
2023-05-18T23:25:18.441Z,100376.52
2023-05-18T23:28:20.160Z,100376.70
2023-05-18T23:31:21.848Z,100377.76
2023-05-18T23:34:23.834Z,100378.80
2023-05-18T23:37:25.828Z,100375.22
2023-05-18T23:40:28.205Z,100369.39
2023-05-18T23:43:30.214Z,100371.98
2023-05-18T23:46:32.143Z,100371.48
2023-05-18T23:49:34.045Z,100368.23
2023-05-18T23:52:36.401Z,100362.73
2023-05-18T23:55:40.104Z,100363.98
2023-05-18T23:58:43.007Z,100368.58
